Home » CLIMA

Sin lluvias y mayormente nublado en Oaxaca

Publicado por Naked snake el miércoles, 27 agosto 2014
Sin Comentarios


Oaxaca, México-En la imagen de satélite se observa nubosidad densa con potencial de lluvias fuertes en el sur de Sinaloa, norte de Nayarit, sur de Jalisco, Colima y oriente de Tabasco.
Condiciones actuales – °C | °F
27 de agosto de 2014, 06:52 (Tiempo local) de MMOX
Mayormente nubladoMayormente nublado
12°C

Se siente: 12°

Sensación térmica: 12° Cielo: 6706m
Indice de calor: 12° Visibilidad: 13km
Punto de rocío: 10° Velocidad del viento: 10km/h
Humedad: 88% Dirección del viento: 360° (N)
Presión: 1023mb Ráfagas del viento:
Texto de Reporte: MMOX 271152Z 36005KT 8SM BKN220 12/10 A3022 RMK SLP123 5/// 953 8/008 ISOL AC
08:00
Mayormente soleado
Mayormente soleado 17°
09:00
Soleado
Soleado 19°
10:00
Soleado
Soleado 22°

Comentarios

comments

Comenta el articulo!

Agrega tu comentario, o trackback desde tu propio sitio. Tambien puedes suscribirte a los comentarios via RSS.

No se toleraran conductas inapropiadas. No spam.

Puedes usar estas etiquetas:
<a href="" title=""> <abbr title=""> <acronym title=""> <b> <blockquote cite=""> <cite> <code> <del datetime=""> <em> <i> <q cite=""> <s> <strike> <strong>

Este sitio esta habilitado para el uso de Gravatar.